KALK

Pioneer Airfield

Pioneer Airfield, Arizona, USA
METAR KALK 242056Z AUTO 26012G20KT 10SM BKN090 30/09 A3003 RMK AO2 SLP072 T03000094 58017
Observed Flight Rules
Sep-24 @ 20:56 UTC (28 minutes ago) Visual Flight Rules
Wind Visibility Clouds
260° at 12 knots
 Gusting to 20 knots
10 miles
  • Broken at 9,000' AGL
Temperatures Readings
Current 30°C / 86°F
Dewpoint 9°C / 48°F
Humidity 27%
Altimeter 30.03" Hg
Pressure 1007.2 hPa
Elevation 1453
METAR KALK 242056Z AUTO 26012G20KT 10SM BKN090 30/09 A3003 RMK AO2 SLP072 T03000094 58017
Observed Flight Rules
Sep-24 @ 20:56 UTC
(28 minutes ago)
VFR
Wind Visibility
260° at 12 knots
 Gusting to 20 knots
10 miles
Clouds
  • Broken at 9,000' AGL
Temperature Dewpoint
30°C / 86°F 9°C / 48°F
Humidity Altimeter Pressure
27% 30.03" Hg 1007.2 hPa